Terminal Aerodrome Forecast
Issued by NWS

Home | Current Version | Previous Version | Text Only | Print | Product List | Glossary On
Versions: 1 2 3 4 5 6 7 8 9 10 11 12 13 14 15 16
000
FTUS44 KTSA 212300
TAFMLC
TAF
KMLC 212320Z 2200/2224 02011G18KT P6SM VCSH BKN080
     FM220200 01004KT P6SM SCT080
     FM221800 04007KT P6SM SKC=

USA.gov is the U.S. government's official web portal to all federal, state and local government web resources and services.